Atlantic Manzanillo — 9V2170 — position and weather

sailwx.info

Track history (hours):
 
Tides and Currents Weather Stations Pressure Air Temp Water Temp Dewpoint Dewpoint Depression Visibility Wind Speed Wind Dir Waves Ship Positions

Atlantic Manzanillo

Last reported at 2018-Apr-12 15:45 UTC. Time now 2018-Apr-23 05:29 UTC.
Position N 35°52' E 032°56'.
Warning: this ship's position is 10 days out of date.

Length 199 m; draft 6.7 m.

Type: Cargo ship. MMSI: 566735000.

Date/timePositionNaut miles runAvg speedWind from/ knotsBaromVisibWave heightAir tempDewpointWater temp
2018-Apr-12 15:45N 35°52' E 032°56'311.1
2018-Apr-12 15:26N 35°50' E 032°52'3011.3
2018-Apr-12 12:45N 35°49' E 032°15'611.5
2018-Apr-12 12:15N 35°49' E 032°08'411.4
2018-Apr-12 11:53N 35°49' E 032°03'611.3
2018-Apr-12 11:22N 35°49' E 031°55'411.0
2018-Apr-12 11:00N 35°49' E 031°51'711.2
2018-Apr-12 10:23N 35°49' E 031°42'411.3
2018-Apr-12 10:00N 35°49' E 031°37'611.2
2018-Apr-12 09:30N 35°49' E 031°30'611.2
2018-Apr-12 09:00N 35°49' E 031°23'611.3
2018-Apr-12 08:30N 35°49' E 031°16'611.6
2018-Apr-12 08:00N 35°49' E 031°09'713.2
2018-Apr-12 07:30N 35°48' E 031°01'713.5
2018-Apr-12 07:00N 35°48' E 030°52'713.5
2018-Apr-12 06:30N 35°48' E 030°44'813.8
2018-Apr-12 05:57N 35°48' E 030°35'714.6
2018-Apr-12 05:29N 35°48' E 030°26'23712.3
2018-Apr-11 10:16N 37°22' E 025°55'413.8
2018-Apr-11 10:00N 37°25' E 025°53'713.4
2018-Apr-11 09:29N 37°32' E 025°49'813.3
2018-Apr-11 08:52N 37°40' E 025°47'613.3
2018-Apr-11 08:27N 37°45' E 025°46'  
Track history (hours):
 
Tides and Currents Weather Stations Pressure Air Temp Water Temp Dewpoint Dewpoint Depression Visibility Wind Speed Wind Dir Waves Ship Positions

Atlantic Manzanillo

Last reported at 2018-Apr-12 15:45 UTC. Time now 2018-Apr-23 05:29 UTC.
Position N 35°52' E 032°56'.
Warning: this ship's position is 10 days out of date.

Length 199 m; draft 6.7 m.

Type: Cargo ship. MMSI: 566735000.

Date/timePositionNaut miles runAvg speedWind from/ knotsBaromVisibWave heightAir tempDewpointWater temp
2018-Apr-12 15:45N 35°52' E 032°56'311.1
2018-Apr-12 15:26N 35°50' E 032°52'3011.3
2018-Apr-12 12:45N 35°49' E 032°15'611.5
2018-Apr-12 12:15N 35°49' E 032°08'411.4
2018-Apr-12 11:53N 35°49' E 032°03'611.3
2018-Apr-12 11:22N 35°49' E 031°55'411.0
2018-Apr-12 11:00N 35°49' E 031°51'711.2
2018-Apr-12 10:23N 35°49' E 031°42'411.3
2018-Apr-12 10:00N 35°49' E 031°37'611.2
2018-Apr-12 09:30N 35°49' E 031°30'611.2
2018-Apr-12 09:00N 35°49' E 031°23'611.3
2018-Apr-12 08:30N 35°49' E 031°16'611.6
2018-Apr-12 08:00N 35°49' E 031°09'713.2
2018-Apr-12 07:30N 35°48' E 031°01'713.5
2018-Apr-12 07:00N 35°48' E 030°52'713.5
2018-Apr-12 06:30N 35°48' E 030°44'813.8
2018-Apr-12 05:57N 35°48' E 030°35'714.6
2018-Apr-12 05:29N 35°48' E 030°26'23712.3
2018-Apr-11 10:16N 37°22' E 025°55'413.8
2018-Apr-11 10:00N 37°25' E 025°53'713.4
2018-Apr-11 09:29N 37°32' E 025°49'813.3
2018-Apr-11 08:52N 37°40' E 025°47'613.3
2018-Apr-11 08:27N 37°45' E 025°46'  

Dump ship's entire track history